sensor_id;sensor_type;location;lat;lon;timestamp;P1;durP1;ratioP1;P2;durP2;ratioP2
38911;SDS011;28444;48.056;14.408;2023-01-20T00:01:25;9.50;;;6.03;;
38911;SDS011;28444;48.056;14.408;2023-01-20T00:03:52;11.88;;;7.05;;
38911;SDS011;28444;48.056;14.408;2023-01-20T00:06:21;11.48;;;6.70;;
38911;SDS011;28444;48.056;14.408;2023-01-20T00:08:50;10.23;;;6.50;;
38911;SDS011;28444;48.056;14.408;2023-01-20T00:11:17;11.98;;;6.97;;
38911;SDS011;28444;48.056;14.408;2023-01-20T00:13:44;9.23;;;6.30;;
38911;SDS011;28444;48.056;14.408;2023-01-20T00:16:11;11.50;;;7.45;;
38911;SDS011;28444;48.056;14.408;2023-01-20T00:18:39;14.45;;;6.40;;
38911;SDS011;28444;48.056;14.408;2023-01-20T00:21:07;13.45;;;7.85;;
38911;SDS011;28444;48.056;14.408;2023-01-20T00:23:36;14.52;;;6.90;;
38911;SDS011;28444;48.056;14.408;2023-01-20T00:26:04;12.98;;;6.55;;
38911;SDS011;28444;48.056;14.408;2023-01-20T00:28:35;11.97;;;6.47;;
38911;SDS011;28444;48.056;14.408;2023-01-20T00:31:35;11.90;;;6.22;;
38911;SDS011;28444;48.056;14.408;2023-01-20T00:33:57;10.27;;;6.38;;
38911;SDS011;28444;48.056;14.408;2023-01-20T00:36:27;12.48;;;7.97;;
38911;SDS011;28444;48.056;14.408;2023-01-20T00:38:56;10.45;;;7.38;;
38911;SDS011;28444;48.056;14.408;2023-01-20T00:41:23;13.68;;;7.00;;
38911;SDS011;28444;48.056;14.408;2023-01-20T00:43:50;11.68;;;7.25;;
38911;SDS011;28444;48.056;14.408;2023-01-20T00:46:17;15.88;;;7.50;;
38911;SDS011;28444;48.056;14.408;2023-01-20T00:48:44;11.43;;;6.82;;
38911;SDS011;28444;48.056;14.408;2023-01-20T00:51:10;12.35;;;7.28;;
38911;SDS011;28444;48.056;14.408;2023-01-20T00:53:37;11.02;;;7.93;;
38911;SDS011;28444;48.056;14.408;2023-01-20T00:56:04;15.85;;;8.65;;
38911;SDS011;28444;48.056;14.408;2023-01-20T00:58:32;15.00;;;7.75;;
38911;SDS011;28444;48.056;14.408;2023-01-20T01:00:59;12.50;;;8.05;;
38911;SDS011;28444;48.056;14.408;2023-01-20T01:03:26;15.20;;;8.60;;
38911;SDS011;28444;48.056;14.408;2023-01-20T01:05:53;15.57;;;9.20;;
38911;SDS011;28444;48.056;14.408;2023-01-20T01:08:30;15.30;;;8.38;;
38911;SDS011;28444;48.056;14.408;2023-01-20T01:10:56;13.50;;;8.15;;
38911;SDS011;28444;48.056;14.408;2023-01-20T01:13:23;13.27;;;6.95;;
38911;SDS011;28444;48.056;14.408;2023-01-20T01:15:50;11.45;;;7.38;;
38911;SDS011;28444;48.056;14.408;2023-01-20T01:18:16;12.43;;;6.88;;
38911;SDS011;28444;48.056;14.408;2023-01-20T01:20:43;12.55;;;6.60;;
38911;SDS011;28444;48.056;14.408;2023-01-20T01:23:10;14.05;;;6.60;;
38911;SDS011;28444;48.056;14.408;2023-01-20T01:25:37;10.68;;;6.22;;
38911;SDS011;28444;48.056;14.408;2023-01-20T01:28:04;9.45;;;5.07;;
38911;SDS011;28444;48.056;14.408;2023-01-20T01:30:31;13.88;;;6.28;;
38911;SDS011;28444;48.056;14.408;2023-01-20T01:32:58;11.50;;;5.88;;
38911;SDS011;28444;48.056;14.408;2023-01-20T01:35:24;9.85;;;6.15;;
38911;SDS011;28444;48.056;14.408;2023-01-20T01:37:51;10.13;;;6.35;;
38911;SDS011;28444;48.056;14.408;2023-01-20T01:40:18;10.60;;;5.80;;
38911;SDS011;28444;48.056;14.408;2023-01-20T01:42:44;8.90;;;5.53;;
38911;SDS011;28444;48.056;14.408;2023-01-20T01:45:21;10.60;;;5.90;;
38911;SDS011;28444;48.056;14.408;2023-01-20T01:48:04;9.45;;;5.38;;
38911;SDS011;28444;48.056;14.408;2023-01-20T01:50:57;10.48;;;5.13;;
38911;SDS011;28444;48.056;14.408;2023-01-20T01:53:24;9.25;;;5.15;;
38911;SDS011;28444;48.056;14.408;2023-01-20T01:55:54;11.45;;;6.78;;
38911;SDS011;28444;48.056;14.408;2023-01-20T01:58:25;13.50;;;6.95;;
38911;SDS011;28444;48.056;14.408;2023-01-20T02:00:56;9.93;;;6.07;;
38911;SDS011;28444;48.056;14.408;2023-01-20T02:03:22;9.40;;;4.90;;
38911;SDS011;28444;48.056;14.408;2023-01-20T02:05:52;10.20;;;6.20;;
38911;SDS011;28444;48.056;14.408;2023-01-20T02:08:20;9.05;;;5.30;;
38911;SDS011;28444;48.056;14.408;2023-01-20T02:10:47;10.27;;;5.85;;
38911;SDS011;28444;48.056;14.408;2023-01-20T02:13:13;10.85;;;5.82;;
38911;SDS011;28444;48.056;14.408;2023-01-20T02:15:41;7.25;;;5.25;;
38911;SDS011;28444;48.056;14.408;2023-01-20T02:35:53;12.23;;;5.57;;
38911;SDS011;28444;48.056;14.408;2023-01-20T02:38:16;8.13;;;5.35;;
38911;SDS011;28444;48.056;14.408;2023-01-20T02:41:19;6.55;;;4.75;;
38911;SDS011;28444;48.056;14.408;2023-01-20T02:44:16;7.40;;;4.88;;
38911;SDS011;28444;48.056;14.408;2023-01-20T02:46:53;8.27;;;5.53;;
38911;SDS011;28444;48.056;14.408;2023-01-20T02:49:56;7.45;;;5.10;;
38911;SDS011;28444;48.056;14.408;2023-01-20T02:52:42;16.00;;;6.53;;
38911;SDS011;28444;48.056;14.408;2023-01-20T02:55:11;11.32;;;5.50;;
38911;SDS011;28444;48.056;14.408;2023-01-20T02:57:45;10.75;;;5.35;;
38911;SDS011;28444;48.056;14.408;2023-01-20T03:00:34;5.63;;;4.43;;
38911;SDS011;28444;48.056;14.408;2023-01-20T03:03:06;14.85;;;4.82;;
38911;SDS011;28444;48.056;14.408;2023-01-20T03:05:39;7.10;;;4.90;;
38911;SDS011;28444;48.056;14.408;2023-01-20T03:08:11;7.80;;;4.70;;
38911;SDS011;28444;48.056;14.408;2023-01-20T03:10:41;8.93;;;5.38;;
38911;SDS011;28444;48.056;14.408;2023-01-20T03:13:15;11.00;;;6.10;;
38911;SDS011;28444;48.056;14.408;2023-01-20T03:18:42;9.48;;;4.90;;
38911;SDS011;28444;48.056;14.408;2023-01-20T03:21:10;8.35;;;5.50;;
38911;SDS011;28444;48.056;14.408;2023-01-20T03:23:39;10.43;;;5.78;;
38911;SDS011;28444;48.056;14.408;2023-01-20T03:26:11;11.05;;;5.78;;
38911;SDS011;28444;48.056;14.408;2023-01-20T03:28:43;11.77;;;5.47;;
38911;SDS011;28444;48.056;14.408;2023-01-20T03:31:17;10.05;;;5.40;;
38911;SDS011;28444;48.056;14.408;2023-01-20T03:34:10;12.68;;;5.80;;
38911;SDS011;28444;48.056;14.408;2023-01-20T03:36:42;8.77;;;5.55;;
38911;SDS011;28444;48.056;14.408;2023-01-20T03:39:11;10.00;;;6.00;;
38911;SDS011;28444;48.056;14.408;2023-01-20T03:41:53;1999.90;;;999.90;;
38911;SDS011;28444;48.056;14.408;2023-01-20T03:45:08;1999.90;;;999.47;;
38911;SDS011;28444;48.056;14.408;2023-01-20T03:50:31;1188.03;;;611.78;;
38911;SDS011;28444;48.056;14.408;2023-01-20T03:53:20;772.33;;;430.42;;
38911;SDS011;28444;48.056;14.408;2023-01-20T03:56:05;662.22;;;359.45;;
38911;SDS011;28444;48.056;14.408;2023-01-20T03:58:38;854.45;;;477.85;;
38911;SDS011;28444;48.056;14.408;2023-01-20T04:01:08;841.92;;;473.60;;
38911;SDS011;28444;48.056;14.408;2023-01-20T04:03:44;576.88;;;325.70;;
38911;SDS011;28444;48.056;14.408;2023-01-20T04:06:12;361.10;;;162.85;;
38911;SDS011;28444;48.056;14.408;2023-01-20T04:08:43;321.08;;;150.13;;
38911;SDS011;28444;48.056;14.408;2023-01-20T04:11:13;380.40;;;199.02;;
38911;SDS011;28444;48.056;14.408;2023-01-20T04:13:40;376.42;;;179.98;;
38911;SDS011;28444;48.056;14.408;2023-01-20T04:16:14;492.52;;;286.90;;
38911;SDS011;28444;48.056;14.408;2023-01-20T04:18:44;287.92;;;153.07;;
38911;SDS011;28444;48.056;14.408;2023-01-20T04:21:18;153.38;;;74.95;;
38911;SDS011;28444;48.056;14.408;2023-01-20T04:24:01;87.68;;;44.22;;
38911;SDS011;28444;48.056;14.408;2023-01-20T04:26:32;29.80;;;14.18;;
38911;SDS011;28444;48.056;14.408;2023-01-20T04:28:59;36.42;;;15.48;;
38911;SDS011;28444;48.056;14.408;2023-01-20T04:31:36;24.67;;;12.93;;
38911;SDS011;28444;48.056;14.408;2023-01-20T04:34:03;23.48;;;12.60;;
38911;SDS011;28444;48.056;14.408;2023-01-20T04:36:30;25.27;;;11.05;;
38911;SDS011;28444;48.056;14.408;2023-01-20T04:38:57;20.83;;;11.07;;
38911;SDS011;28444;48.056;14.408;2023-01-20T04:41:24;26.77;;;10.57;;
38911;SDS011;28444;48.056;14.408;2023-01-20T04:43:50;22.00;;;10.65;;
38911;SDS011;28444;48.056;14.408;2023-01-20T04:46:17;18.80;;;10.25;;
38911;SDS011;28444;48.056;14.408;2023-01-20T04:48:44;25.63;;;11.88;;
38911;SDS011;28444;48.056;14.408;2023-01-20T04:51:11;30.95;;;12.63;;
38911;SDS011;28444;48.056;14.408;2023-01-20T04:53:39;23.83;;;12.18;;
38911;SDS011;28444;48.056;14.408;2023-01-20T04:56:09;17.35;;;9.77;;
38911;SDS011;28444;48.056;14.408;2023-01-20T04:58:40;18.30;;;7.60;;
38911;SDS011;28444;48.056;14.408;2023-01-20T05:01:08;15.00;;;7.35;;
38911;SDS011;28444;48.056;14.408;2023-01-20T05:03:35;13.32;;;7.00;;
38911;SDS011;28444;48.056;14.408;2023-01-20T05:06:02;16.58;;;7.90;;
38911;SDS011;28444;48.056;14.408;2023-01-20T05:08:29;13.60;;;7.05;;
38911;SDS011;28444;48.056;14.408;2023-01-20T05:10:55;12.43;;;6.57;;
38911;SDS011;28444;48.056;14.408;2023-01-20T05:13:22;10.77;;;5.88;;
38911;SDS011;28444;48.056;14.408;2023-01-20T05:15:49;9.43;;;5.68;;
38911;SDS011;28444;48.056;14.408;2023-01-20T05:18:15;18.25;;;5.93;;
38911;SDS011;28444;48.056;14.408;2023-01-20T05:20:45;10.73;;;5.30;;
38911;SDS011;28444;48.056;14.408;2023-01-20T05:23:14;7.95;;;5.10;;
38911;SDS011;28444;48.056;14.408;2023-01-20T05:25:41;7.22;;;4.82;;
38911;SDS011;28444;48.056;14.408;2023-01-20T05:28:08;10.63;;;5.15;;
38911;SDS011;28444;48.056;14.408;2023-01-20T05:30:35;8.77;;;4.40;;
38911;SDS011;28444;48.056;14.408;2023-01-20T05:33:01;9.65;;;5.20;;
38911;SDS011;28444;48.056;14.408;2023-01-20T05:35:28;8.63;;;4.53;;
38911;SDS011;28444;48.056;14.408;2023-01-20T05:37:55;7.07;;;5.28;;
38911;SDS011;28444;48.056;14.408;2023-01-20T05:40:22;8.95;;;4.80;;
38911;SDS011;28444;48.056;14.408;2023-01-20T05:42:49;11.68;;;5.35;;
38911;SDS011;28444;48.056;14.408;2023-01-20T05:45:15;11.55;;;6.30;;
38911;SDS011;28444;48.056;14.408;2023-01-20T05:47:42;10.23;;;5.95;;
38911;SDS011;28444;48.056;14.408;2023-01-20T05:50:09;9.00;;;6.20;;
38911;SDS011;28444;48.056;14.408;2023-01-20T05:52:37;11.57;;;7.30;;
38911;SDS011;28444;48.056;14.408;2023-01-20T05:55:04;12.93;;;6.78;;
38911;SDS011;28444;48.056;14.408;2023-01-20T05:57:31;13.18;;;6.25;;
38911;SDS011;28444;48.056;14.408;2023-01-20T05:59:57;14.10;;;6.10;;
38911;SDS011;28444;48.056;14.408;2023-01-20T06:02:24;14.70;;;7.07;;
38911;SDS011;28444;48.056;14.408;2023-01-20T06:04:51;18.60;;;7.78;;
38911;SDS011;28444;48.056;14.408;2023-01-20T06:07:17;21.50;;;6.65;;
38911;SDS011;28444;48.056;14.408;2023-01-20T06:09:44;13.85;;;6.20;;
38911;SDS011;28444;48.056;14.408;2023-01-20T06:12:11;9.43;;;6.28;;
38911;SDS011;28444;48.056;14.408;2023-01-20T06:14:37;8.32;;;6.35;;
38911;SDS011;28444;48.056;14.408;2023-01-20T06:17:04;9.77;;;6.45;;
38911;SDS011;28444;48.056;14.408;2023-01-20T06:19:31;12.88;;;6.55;;
38911;SDS011;28444;48.056;14.408;2023-01-20T06:21:57;19.70;;;6.88;;
38911;SDS011;28444;48.056;14.408;2023-01-20T06:24:24;12.95;;;8.38;;
38911;SDS011;28444;48.056;14.408;2023-01-20T06:26:51;11.95;;;7.40;;
38911;SDS011;28444;48.056;14.408;2023-01-20T06:29:18;9.43;;;6.90;;
38911;SDS011;28444;48.056;14.408;2023-01-20T06:31:44;8.45;;;7.05;;
38911;SDS011;28444;48.056;14.408;2023-01-20T06:34:12;10.75;;;7.60;;
38911;SDS011;28444;48.056;14.408;2023-01-20T06:36:39;15.13;;;9.05;;
38911;SDS011;28444;48.056;14.408;2023-01-20T06:39:06;11.45;;;7.00;;
38911;SDS011;28444;48.056;14.408;2023-01-20T06:41:32;11.02;;;7.20;;
38911;SDS011;28444;48.056;14.408;2023-01-20T06:43:59;14.57;;;8.07;;
38911;SDS011;28444;48.056;14.408;2023-01-20T06:46:26;14.02;;;7.15;;
38911;SDS011;28444;48.056;14.408;2023-01-20T06:48:53;12.30;;;6.97;;
38911;SDS011;28444;48.056;14.408;2023-01-20T06:51:26;12.23;;;6.20;;
38911;SDS011;28444;48.056;14.408;2023-01-20T06:53:55;9.88;;;5.97;;
38911;SDS011;28444;48.056;14.408;2023-01-20T06:56:22;9.90;;;6.18;;
38911;SDS011;28444;48.056;14.408;2023-01-20T06:58:49;9.15;;;5.97;;
38911;SDS011;28444;48.056;14.408;2023-01-20T07:01:18;8.82;;;6.00;;
38911;SDS011;28444;48.056;14.408;2023-01-20T07:03:48;8.07;;;6.50;;
38911;SDS011;28444;48.056;14.408;2023-01-20T07:06:36;10.10;;;6.03;;
38911;SDS011;28444;48.056;14.408;2023-01-20T07:09:04;14.18;;;5.50;;
38911;SDS011;28444;48.056;14.408;2023-01-20T07:11:35;7.93;;;4.25;;
38911;SDS011;28444;48.056;14.408;2023-01-20T07:14:03;14.45;;;4.97;;
38911;SDS011;28444;48.056;14.408;2023-01-20T07:16:30;18.08;;;5.15;;
38911;SDS011;28444;48.056;14.408;2023-01-20T07:18:58;7.28;;;4.97;;
38911;SDS011;28444;48.056;14.408;2023-01-20T07:21:25;8.70;;;5.15;;
38911;SDS011;28444;48.056;14.408;2023-01-20T07:23:52;7.07;;;4.72;;
38911;SDS011;28444;48.056;14.408;2023-01-20T07:26:20;7.80;;;6.28;;
38911;SDS011;28444;48.056;14.408;2023-01-20T07:28:48;8.05;;;5.63;;
38911;SDS011;28444;48.056;14.408;2023-01-20T07:31:19;10.35;;;5.38;;
38911;SDS011;28444;48.056;14.408;2023-01-20T07:33:47;16.15;;;4.97;;
38911;SDS011;28444;48.056;14.408;2023-01-20T07:36:15;10.68;;;5.40;;
38911;SDS011;28444;48.056;14.408;2023-01-20T07:38:45;11.40;;;5.40;;
38911;SDS011;28444;48.056;14.408;2023-01-20T07:41:13;13.18;;;6.00;;
38911;SDS011;28444;48.056;14.408;2023-01-20T07:43:45;10.80;;;6.10;;
38911;SDS011;28444;48.056;14.408;2023-01-20T07:46:13;12.35;;;6.50;;
38911;SDS011;28444;48.056;14.408;2023-01-20T07:48:40;8.55;;;6.03;;
38911;SDS011;28444;48.056;14.408;2023-01-20T07:51:08;29.15;;;7.88;;
38911;SDS011;28444;48.056;14.408;2023-01-20T07:53:37;34.45;;;19.80;;
38911;SDS011;28444;48.056;14.408;2023-01-20T07:56:19;16.92;;;8.75;;
38911;SDS011;28444;48.056;14.408;2023-01-20T07:58:50;14.50;;;8.73;;
38911;SDS011;28444;48.056;14.408;2023-01-20T08:01:28;15.13;;;8.10;;
38911;SDS011;28444;48.056;14.408;2023-01-20T08:03:57;21.88;;;9.55;;
38911;SDS011;28444;48.056;14.408;2023-01-20T08:06:27;22.98;;;11.10;;
38911;SDS011;28444;48.056;14.408;2023-01-20T08:08:55;17.08;;;9.65;;
38911;SDS011;28444;48.056;14.408;2023-01-20T08:11:25;16.10;;;9.48;;
38911;SDS011;28444;48.056;14.408;2023-01-20T08:13:52;15.38;;;9.98;;
38911;SDS011;28444;48.056;14.408;2023-01-20T08:16:19;20.23;;;10.55;;
38911;SDS011;28444;48.056;14.408;2023-01-20T08:18:46;19.70;;;10.57;;
38911;SDS011;28444;48.056;14.408;2023-01-20T08:21:17;36.63;;;12.55;;
38911;SDS011;28444;48.056;14.408;2023-01-20T08:23:53;72.38;;;18.05;;
38911;SDS011;28444;48.056;14.408;2023-01-20T08:26:20;437.20;;;56.08;;
38911;SDS011;28444;48.056;14.408;2023-01-20T08:28:49;402.23;;;63.55;;
38911;SDS011;28444;48.056;14.408;2023-01-20T08:31:18;64.32;;;17.88;;
38911;SDS011;28444;48.056;14.408;2023-01-20T08:33:47;44.28;;;16.65;;
38911;SDS011;28444;48.056;14.408;2023-01-20T08:36:15;68.55;;;17.83;;
38911;SDS011;28444;48.056;14.408;2023-01-20T08:38:44;24.30;;;14.02;;
38911;SDS011;28444;48.056;14.408;2023-01-20T08:41:14;151.65;;;28.92;;
38911;SDS011;28444;48.056;14.408;2023-01-20T08:43:43;102.78;;;23.52;;
38911;SDS011;28444;48.056;14.408;2023-01-20T08:46:11;39.83;;;15.77;;
38911;SDS011;28444;48.056;14.408;2023-01-20T08:48:39;46.10;;;15.88;;
38911;SDS011;28444;48.056;14.408;2023-01-20T08:51:12;33.90;;;15.07;;
38911;SDS011;28444;48.056;14.408;2023-01-20T08:53:41;32.67;;;15.20;;
38911;SDS011;28444;48.056;14.408;2023-01-20T08:56:08;37.67;;;16.17;;
38911;SDS011;28444;48.056;14.408;2023-01-20T08:58:36;23.83;;;15.70;;
38911;SDS011;28444;48.056;14.408;2023-01-20T09:01:07;30.73;;;16.23;;
38911;SDS011;28444;48.056;14.408;2023-01-20T09:03:38;23.25;;;15.75;;
38911;SDS011;28444;48.056;14.408;2023-01-20T09:06:05;26.10;;;15.23;;
38911;SDS011;28444;48.056;14.408;2023-01-20T09:08:36;40.40;;;15.93;;
38911;SDS011;28444;48.056;14.408;2023-01-20T09:11:04;29.10;;;17.52;;
38911;SDS011;28444;48.056;14.408;2023-01-20T09:13:35;25.45;;;16.58;;
38911;SDS011;28444;48.056;14.408;2023-01-20T09:16:03;30.30;;;17.60;;
38911;SDS011;28444;48.056;14.408;2023-01-20T09:18:30;29.00;;;17.73;;
38911;SDS011;28444;48.056;14.408;2023-01-20T09:20:58;34.65;;;18.58;;
38911;SDS011;28444;48.056;14.408;2023-01-20T09:23:25;30.45;;;18.65;;
38911;SDS011;28444;48.056;14.408;2023-01-20T09:25:52;31.50;;;19.65;;
38911;SDS011;28444;48.056;14.408;2023-01-20T09:28:18;31.42;;;18.63;;
38911;SDS011;28444;48.056;14.408;2023-01-20T09:30:45;38.90;;;20.02;;
38911;SDS011;28444;48.056;14.408;2023-01-20T09:33:12;31.00;;;19.77;;
38911;SDS011;28444;48.056;14.408;2023-01-20T09:35:39;32.53;;;18.05;;
38911;SDS011;28444;48.056;14.408;2023-01-20T09:38:05;35.55;;;19.63;;
38911;SDS011;28444;48.056;14.408;2023-01-20T09:44:14;38.85;;;21.08;;
38911;SDS011;28444;48.056;14.408;2023-01-20T09:53:10;42.50;;;20.77;;
38911;SDS011;28444;48.056;14.408;2023-01-20T09:56:09;28.38;;;18.42;;
38911;SDS011;28444;48.056;14.408;2023-01-20T09:58:47;37.78;;;19.80;;
38911;SDS011;28444;48.056;14.408;2023-01-20T10:07:10;36.35;;;19.33;;
38911;SDS011;28444;48.056;14.408;2023-01-20T10:09:47;31.05;;;18.50;;
38911;SDS011;28444;48.056;14.408;2023-01-20T10:12:32;32.08;;;18.52;;
38911;SDS011;28444;48.056;14.408;2023-01-20T10:15:05;52.92;;;19.67;;
38911;SDS011;28444;48.056;14.408;2023-01-20T10:20:32;35.40;;;20.38;;
38911;SDS011;28444;48.056;14.408;2023-01-20T10:24:08;31.33;;;19.90;;
38911;SDS011;28444;48.056;14.408;2023-01-20T10:26:23;34.90;;;20.23;;
38911;SDS011;28444;48.056;14.408;2023-01-20T10:28:59;32.28;;;20.02;;
38911;SDS011;28444;48.056;14.408;2023-01-20T10:31:28;35.72;;;21.80;;
38911;SDS011;28444;48.056;14.408;2023-01-20T10:34:00;39.63;;;21.77;;
38911;SDS011;28444;48.056;14.408;2023-01-20T10:36:34;39.30;;;22.60;;
38911;SDS011;28444;48.056;14.408;2023-01-20T10:39:03;38.28;;;21.75;;
38911;SDS011;28444;48.056;14.408;2023-01-20T10:41:45;33.33;;;21.08;;
38911;SDS011;28444;48.056;14.408;2023-01-20T10:44:16;35.95;;;22.25;;
38911;SDS011;28444;48.056;14.408;2023-01-20T10:53:13;32.83;;;19.55;;
38911;SDS011;28444;48.056;14.408;2023-01-20T10:58:34;36.80;;;20.40;;
38911;SDS011;28444;48.056;14.408;2023-01-20T11:01:03;35.40;;;20.00;;
38911;SDS011;28444;48.056;14.408;2023-01-20T11:03:35;35.97;;;20.75;;
38911;SDS011;28444;48.056;14.408;2023-01-20T11:06:06;38.05;;;21.65;;
38911;SDS011;28444;48.056;14.408;2023-01-20T11:08:32;41.35;;;22.75;;
38911;SDS011;28444;48.056;14.408;2023-01-20T11:11:00;32.97;;;20.65;;
38911;SDS011;28444;48.056;14.408;2023-01-20T11:13:40;48.92;;;24.33;;
38911;SDS011;28444;48.056;14.408;2023-01-20T11:16:13;34.05;;;20.67;;
38911;SDS011;28444;48.056;14.408;2023-01-20T11:18:53;34.05;;;20.52;;
38911;SDS011;28444;48.056;14.408;2023-01-20T11:21:32;38.53;;;21.20;;
38911;SDS011;28444;48.056;14.408;2023-01-20T11:24:23;35.17;;;21.55;;
38911;SDS011;28444;48.056;14.408;2023-01-20T11:27:01;40.75;;;22.25;;
38911;SDS011;28444;48.056;14.408;2023-01-20T11:29:30;38.00;;;20.98;;
38911;SDS011;28444;48.056;14.408;2023-01-20T11:32:03;43.30;;;22.38;;
38911;SDS011;28444;48.056;14.408;2023-01-20T11:34:31;38.22;;;21.50;;
38911;SDS011;28444;48.056;14.408;2023-01-20T11:37:17;45.22;;;23.13;;
38911;SDS011;28444;48.056;14.408;2023-01-20T11:40:00;37.50;;;23.25;;
38911;SDS011;28444;48.056;14.408;2023-01-20T11:42:41;40.78;;;23.88;;
38911;SDS011;28444;48.056;14.408;2023-01-20T11:45:30;40.85;;;23.77;;
38911;SDS011;28444;48.056;14.408;2023-01-20T11:51:00;35.78;;;22.55;;
38911;SDS011;28444;48.056;14.408;2023-01-20T11:53:27;38.58;;;22.35;;
38911;SDS011;28444;48.056;14.408;2023-01-20T11:56:15;41.33;;;24.07;;
38911;SDS011;28444;48.056;14.408;2023-01-20T12:01:25;38.47;;;22.58;;
38911;SDS011;28444;48.056;14.408;2023-01-20T12:04:06;36.53;;;21.38;;
38911;SDS011;28444;48.056;14.408;2023-01-20T12:07:08;41.28;;;22.05;;
38911;SDS011;28444;48.056;14.408;2023-01-20T12:09:42;33.97;;;21.17;;
38911;SDS011;28444;48.056;14.408;2023-01-20T12:17:45;33.22;;;20.13;;
38911;SDS011;28444;48.056;14.408;2023-01-20T12:20:40;36.50;;;23.23;;
38911;SDS011;28444;48.056;14.408;2023-01-20T12:23:38;37.42;;;21.00;;
38911;SDS011;28444;48.056;14.408;2023-01-20T12:26:12;40.80;;;22.50;;
38911;SDS011;28444;48.056;14.408;2023-01-20T12:28:55;43.85;;;24.23;;
38911;SDS011;28444;48.056;14.408;2023-01-20T12:31:27;39.72;;;23.30;;
38911;SDS011;28444;48.056;14.408;2023-01-20T12:34:03;35.20;;;21.77;;
38911;SDS011;28444;48.056;14.408;2023-01-20T12:39:56;39.05;;;22.08;;
38911;SDS011;28444;48.056;14.408;2023-01-20T12:48:35;36.97;;;19.88;;
38911;SDS011;28444;48.056;14.408;2023-01-20T12:51:29;38.70;;;22.33;;
38911;SDS011;28444;48.056;14.408;2023-01-20T12:54:32;36.17;;;21.30;;
38911;SDS011;28444;48.056;14.408;2023-01-20T13:00:39;37.53;;;22.20;;
38911;SDS011;28444;48.056;14.408;2023-01-20T13:08:06;35.60;;;23.27;;
38911;SDS011;28444;48.056;14.408;2023-01-20T13:10:15;38.92;;;21.92;;
38911;SDS011;28444;48.056;14.408;2023-01-20T13:13:26;38.05;;;22.25;;
38911;SDS011;28444;48.056;14.408;2023-01-20T13:16:35;37.13;;;20.08;;
38911;SDS011;28444;48.056;14.408;2023-01-20T13:19:18;42.15;;;21.75;;
38911;SDS011;28444;48.056;14.408;2023-01-20T13:21:54;38.63;;;20.58;;
38911;SDS011;28444;48.056;14.408;2023-01-20T13:24:33;35.50;;;21.38;;
38911;SDS011;28444;48.056;14.408;2023-01-20T13:27:00;50.38;;;27.67;;
38911;SDS011;28444;48.056;14.408;2023-01-20T13:29:51;36.08;;;21.90;;
38911;SDS011;28444;48.056;14.408;2023-01-20T13:35:36;40.47;;;22.48;;
38911;SDS011;28444;48.056;14.408;2023-01-20T13:38:28;40.20;;;23.40;;
38911;SDS011;28444;48.056;14.408;2023-01-20T13:40:58;37.63;;;21.67;;
38911;SDS011;28444;48.056;14.408;2023-01-20T13:43:33;45.13;;;24.35;;
38911;SDS011;28444;48.056;14.408;2023-01-20T13:49:11;43.13;;;22.52;;
38911;SDS011;28444;48.056;14.408;2023-01-20T13:51:48;45.28;;;23.40;;
38911;SDS011;28444;48.056;14.408;2023-01-20T14:00:10;36.47;;;20.23;;
38911;SDS011;28444;48.056;14.408;2023-01-20T14:02:38;38.28;;;23.00;;
38911;SDS011;28444;48.056;14.408;2023-01-20T14:05:17;33.97;;;21.30;;
38911;SDS011;28444;48.056;14.408;2023-01-20T14:07:45;44.60;;;22.45;;
38911;SDS011;28444;48.056;14.408;2023-01-20T14:10:12;38.38;;;22.38;;
38911;SDS011;28444;48.056;14.408;2023-01-20T14:12:39;42.58;;;21.85;;
38911;SDS011;28444;48.056;14.408;2023-01-20T14:15:20;37.80;;;21.27;;
38911;SDS011;28444;48.056;14.408;2023-01-20T14:17:52;34.50;;;21.73;;
38911;SDS011;28444;48.056;14.408;2023-01-20T14:20:23;34.72;;;21.58;;
38911;SDS011;28444;48.056;14.408;2023-01-20T14:22:51;35.72;;;21.98;;
38911;SDS011;28444;48.056;14.408;2023-01-20T14:25:23;37.97;;;21.00;;
38911;SDS011;28444;48.056;14.408;2023-01-20T14:27:51;38.78;;;21.38;;
38911;SDS011;28444;48.056;14.408;2023-01-20T14:30:19;37.60;;;21.50;;
38911;SDS011;28444;48.056;14.408;2023-01-20T14:32:51;39.20;;;22.27;;
38911;SDS011;28444;48.056;14.408;2023-01-20T14:35:23;46.83;;;24.77;;
38911;SDS011;28444;48.056;14.408;2023-01-20T14:37:54;36.55;;;23.25;;
38911;SDS011;28444;48.056;14.408;2023-01-20T14:40:22;39.60;;;23.58;;
38911;SDS011;28444;48.056;14.408;2023-01-20T14:42:58;44.53;;;24.65;;
38911;SDS011;28444;48.056;14.408;2023-01-20T14:45:31;44.67;;;25.70;;
38911;SDS011;28444;48.056;14.408;2023-01-20T14:48:00;46.25;;;26.58;;
38911;SDS011;28444;48.056;14.408;2023-01-20T14:50:28;49.35;;;27.35;;
38911;SDS011;28444;48.056;14.408;2023-01-20T14:52:55;43.05;;;25.38;;
38911;SDS011;28444;48.056;14.408;2023-01-20T14:55:29;48.63;;;26.15;;
38911;SDS011;28444;48.056;14.408;2023-01-20T14:57:57;46.22;;;27.05;;
38911;SDS011;28444;48.056;14.408;2023-01-20T15:00:28;41.35;;;25.98;;
38911;SDS011;28444;48.056;14.408;2023-01-20T15:03:04;45.42;;;25.40;;
38911;SDS011;28444;48.056;14.408;2023-01-20T15:05:49;44.08;;;26.65;;
38911;SDS011;28444;48.056;14.408;2023-01-20T15:08:21;44.85;;;24.63;;
38911;SDS011;28444;48.056;14.408;2023-01-20T15:21:44;41.22;;;24.77;;
38911;SDS011;28444;48.056;14.408;2023-01-20T15:24:19;36.20;;;22.63;;
38911;SDS011;28444;48.056;14.408;2023-01-20T15:26:49;42.25;;;23.90;;
38911;SDS011;28444;48.056;14.408;2023-01-20T15:32:24;40.15;;;24.05;;
38911;SDS011;28444;48.056;14.408;2023-01-20T15:34:51;42.10;;;23.85;;
38911;SDS011;28444;48.056;14.408;2023-01-20T15:37:18;46.30;;;24.52;;
38911;SDS011;28444;48.056;14.408;2023-01-20T15:39:45;39.78;;;24.75;;
38911;SDS011;28444;48.056;14.408;2023-01-20T15:42:12;41.25;;;24.65;;
38911;SDS011;28444;48.056;14.408;2023-01-20T15:44:40;43.35;;;24.35;;
38911;SDS011;28444;48.056;14.408;2023-01-20T15:47:15;39.05;;;22.45;;
38911;SDS011;28444;48.056;14.408;2023-01-20T15:49:46;42.70;;;24.02;;
38911;SDS011;28444;48.056;14.408;2023-01-20T15:52:12;41.90;;;23.08;;
38911;SDS011;28444;48.056;14.408;2023-01-20T15:54:39;41.50;;;22.95;;
38911;SDS011;28444;48.056;14.408;2023-01-20T15:57:12;43.15;;;26.45;;
38911;SDS011;28444;48.056;14.408;2023-01-20T15:59:42;45.17;;;25.02;;
38911;SDS011;28444;48.056;14.408;2023-01-20T16:02:16;43.85;;;24.25;;
38911;SDS011;28444;48.056;14.408;2023-01-20T16:04:44;45.03;;;24.70;;
38911;SDS011;28444;48.056;14.408;2023-01-20T16:07:12;45.97;;;24.80;;
38911;SDS011;28444;48.056;14.408;2023-01-20T16:09:41;51.78;;;26.65;;
38911;SDS011;28444;48.056;14.408;2023-01-20T16:12:12;47.53;;;27.13;;
38911;SDS011;28444;48.056;14.408;2023-01-20T16:14:40;46.70;;;26.88;;
38911;SDS011;28444;48.056;14.408;2023-01-20T16:17:17;46.58;;;25.83;;
38911;SDS011;28444;48.056;14.408;2023-01-20T16:19:46;48.08;;;28.83;;
38911;SDS011;28444;48.056;14.408;2023-01-20T16:22:14;45.67;;;27.60;;
38911;SDS011;28444;48.056;14.408;2023-01-20T16:24:41;53.22;;;28.80;;
38911;SDS011;28444;48.056;14.408;2023-01-20T16:27:18;46.72;;;27.85;;
38911;SDS011;28444;48.056;14.408;2023-01-20T16:29:47;49.97;;;28.70;;